createdAt,value
2019-04-14T00:00:35.843Z,76.59
2019-04-14T00:03:23.751Z,76.86
2019-04-14T00:06:00.986Z,76.73
2019-04-14T00:08:34.813Z,75.80
2019-04-14T00:11:08.330Z,75.37
2019-04-14T00:13:41.670Z,75.40
2019-04-14T00:16:14.109Z,74.94
2019-04-14T00:18:47.007Z,74.59
2019-04-14T00:21:19.371Z,75.77
2019-04-14T00:23:54.365Z,74.94
2019-04-14T00:26:31.544Z,75.29
2019-04-14T00:29:04.485Z,75.34
2019-04-14T00:31:37.133Z,75.56
2019-04-14T00:34:35.410Z,75.43
2019-04-14T00:37:25.224Z,75.27
2019-04-14T00:40:00.500Z,75.15
2019-04-14T00:42:51.857Z,75.98
2019-04-14T00:45:52.524Z,75.43
2019-04-14T00:48:25.775Z,75.27
2019-04-14T00:50:58.235Z,75.58
2019-04-14T00:53:29.623Z,75.66
2019-04-14T00:56:06.203Z,75.55
2019-04-14T00:58:41.127Z,75.50
2019-04-14T01:01:13.358Z,75.48
2019-04-14T01:03:46.273Z,75.23
2019-04-14T01:06:18.519Z,75.42
2019-04-14T01:08:51.287Z,75.58
2019-04-14T01:11:22.942Z,75.80
2019-04-14T01:13:57.180Z,75.61
2019-04-14T01:16:30.426Z,75.59
2019-04-14T01:19:04.781Z,75.43
2019-04-14T01:21:37.097Z,76.00
2019-04-14T01:24:10.627Z,77.66
2019-04-14T01:26:44.217Z,78.38
2019-04-14T01:29:16.635Z,78.37
2019-04-14T01:31:53.630Z,77.97
2019-04-14T01:34:28.155Z,77.31
2019-04-14T01:37:00.818Z,76.84
2019-04-14T01:39:35.068Z,76.49
2019-04-14T01:42:07.111Z,76.37
2019-04-14T01:44:43.822Z,76.30
2019-04-14T01:47:18.166Z,76.21
2019-04-14T01:49:52.951Z,76.35
2019-04-14T01:52:46.206Z,76.47
2019-04-14T01:55:37.353Z,76.52
2019-04-14T01:58:22.869Z,77.27
2019-04-14T02:01:04.379Z,77.27
2019-04-14T02:03:37.298Z,76.81
2019-04-14T02:06:11.453Z,76.58
2019-04-14T02:08:45.743Z,76.45
2019-04-14T02:11:18.310Z,77.11
2019-04-14T02:13:50.962Z,78.17
2019-04-14T02:16:33.051Z,80.51
2019-04-14T02:18:58.670Z,81.84
2019-04-14T02:21:32.399Z,80.90
2019-04-14T02:24:04.966Z,80.25
2019-04-14T02:26:39.436Z,79.57
2019-04-14T02:29:12.716Z,79.01
2019-04-14T02:32:13.889Z,78.69
2019-04-14T02:40:01.273Z,77.72
2019-04-14T02:42:36.715Z,77.63
2019-04-14T02:45:10.526Z,78.19
2019-04-14T02:47:53.765Z,78.09
2019-04-14T02:50:12.198Z,78.11
2019-04-14T02:52:52.087Z,77.99
2019-04-14T02:55:23.615Z,77.84
2019-04-14T02:58:06.022Z,77.64
2019-04-14T03:03:20.028Z,77.71
2019-04-14T03:05:53.270Z,78.08
2019-04-14T03:08:26.335Z,78.74
2019-04-14T03:10:53.568Z,80.47
2019-04-14T03:13:43.498Z,81.17
2019-04-14T03:18:50.101Z,80.99
2019-04-14T03:22:04.862Z,81.75
2019-04-14T03:24:33.866Z,81.79
2019-04-14T03:27:40.353Z,81.48
2019-04-14T03:30:57.584Z,81.06
2019-04-14T03:38:18.307Z,83.07
2019-04-14T03:40:49.997Z,84.43
2019-04-14T03:51:10.585Z,85.83
2019-04-14T03:53:53.356Z,85.03
2019-04-14T03:56:27.208Z,84.17
2019-04-14T03:59:01.885Z,83.39
2019-04-14T04:01:37.165Z,82.48
2019-04-14T04:04:10.377Z,81.88
2019-04-14T04:06:44.374Z,81.27
2019-04-14T04:09:19.285Z,80.76
2019-04-14T04:11:52.241Z,80.54
2019-04-14T04:14:27.178Z,80.14
2019-04-14T04:17:10.170Z,80.16
2019-04-14T04:20:04.766Z,79.89
2019-04-14T04:23:09.671Z,79.92
2019-04-14T04:25:50.810Z,80.23
2019-04-14T04:28:40.647Z,81.19
2019-04-14T04:31:22.049Z,82.38
2019-04-14T04:34:27.290Z,81.96
2019-04-14T04:37:17.160Z,81.53
2019-04-14T04:39:53.914Z,81.33
2019-04-14T04:42:28.710Z,80.96
2019-04-14T04:45:01.799Z,80.63
2019-04-14T04:47:33.812Z,80.45
2019-04-14T04:50:06.553Z,80.23
2019-04-14T04:52:39.196Z,82.23
2019-04-14T04:55:13.374Z,81.37
2019-04-14T04:57:48.059Z,81.25
2019-04-14T05:00:22.198Z,80.89
2019-04-14T05:02:57.142Z,81.20
2019-04-14T05:06:13.325Z,81.52
2019-04-14T05:08:50.426Z,81.58
2019-04-14T05:11:53.545Z,81.21
2019-04-14T05:14:32.706Z,80.60
2019-04-14T05:17:06.426Z,80.10
2019-04-14T05:19:40.893Z,79.52
2019-04-14T05:22:16.646Z,79.96
2019-04-14T05:24:50.704Z,81.02
2019-04-14T05:27:23.151Z,82.24
2019-04-14T05:29:58.047Z,83.45
2019-04-14T05:32:30.761Z,82.86
2019-04-14T05:35:05.615Z,82.84
2019-04-14T05:37:39.975Z,82.05
2019-04-14T05:40:14.559Z,82.22
2019-04-14T05:42:58.075Z,82.83
2019-04-14T05:45:30.700Z,82.41
2019-04-14T05:48:03.338Z,82.66
2019-04-14T05:50:37.933Z,82.98
2019-04-14T05:53:11.058Z,82.70
2019-04-14T05:55:45.935Z,82.17
2019-04-14T05:58:18.595Z,80.40
2019-04-14T06:00:51.820Z,82.18
2019-04-14T06:03:25.693Z,82.97
2019-04-14T06:06:01.359Z,82.93
2019-04-14T06:08:32.647Z,81.95
2019-04-14T06:11:05.000Z,81.92
2019-04-14T06:13:36.828Z,81.54
2019-04-14T06:16:10.850Z,81.12
2019-04-14T06:18:42.586Z,80.24
2019-04-14T06:21:14.811Z,79.72
2019-04-14T06:23:47.887Z,78.59
2019-04-14T06:26:23.367Z,78.34
2019-04-14T06:28:55.170Z,77.37
2019-04-14T06:31:49.299Z,77.23
2019-04-14T06:34:27.462Z,76.11
2019-04-14T06:37:17.494Z,75.32
2019-04-14T06:39:50.488Z,76.18
2019-04-14T06:42:22.901Z,75.93
2019-04-14T06:44:55.881Z,74.73
2019-04-14T06:47:31.569Z,75.72
2019-04-14T06:50:02.849Z,75.21
2019-04-14T06:52:36.400Z,75.28
2019-04-14T06:55:10.720Z,75.04
2019-04-14T06:57:44.060Z,74.33
2019-04-14T07:00:16.962Z,74.34
2019-04-14T07:02:51.171Z,74.53
2019-04-14T07:05:24.652Z,73.67
2019-04-14T07:08:00.335Z,74.01
2019-04-14T07:10:31.979Z,74.06
2019-04-14T07:13:05.982Z,73.59
2019-04-14T07:15:39.104Z,73.10
2019-04-14T07:18:12.312Z,73.26
2019-04-14T07:20:43.982Z,73.30
2019-04-14T07:23:17.111Z,74.31
2019-04-14T07:25:50.801Z,73.81
2019-04-14T07:28:22.047Z,73.75
2019-04-14T07:31:12.679Z,73.41
2019-04-14T07:34:09.763Z,74.24
2019-04-14T07:37:01.653Z,74.39
2019-04-14T07:39:55.201Z,73.65
2019-04-14T07:42:41.637Z,74.25
2019-04-14T07:45:26.493Z,73.39
2019-04-14T07:48:10.481Z,73.96
2019-04-14T07:50:55.723Z,73.36
2019-04-14T07:53:49.929Z,73.76
2019-04-14T07:56:39.252Z,73.45
2019-04-14T07:59:22.832Z,73.90
2019-04-14T08:02:22.185Z,74.44
2019-04-14T08:05:18.181Z,74.60
2019-04-14T08:07:51.954Z,74.26
2019-04-14T08:10:24.805Z,72.76
2019-04-14T08:13:02.103Z,73.12
2019-04-14T08:15:34.271Z,74.25
2019-04-14T08:18:10.205Z,73.61
2019-04-14T08:20:42.305Z,74.36
2019-04-14T08:23:15.263Z,73.66
2019-04-14T08:25:49.676Z,74.11
2019-04-14T08:28:22.327Z,73.51
2019-04-14T08:30:56.278Z,73.31
2019-04-14T08:33:30.338Z,74.10
2019-04-14T08:36:04.241Z,73.31
2019-04-14T08:38:37.270Z,73.89
2019-04-14T08:41:09.606Z,73.41
2019-04-14T08:43:51.565Z,73.08
2019-04-14T08:46:49.239Z,73.56
2019-04-14T08:49:33.730Z,73.11
2019-04-14T08:52:24.197Z,73.17
2019-04-14T08:55:12.151Z,73.44
2019-04-14T08:58:09.350Z,74.03
2019-04-14T09:00:56.378Z,74.17
2019-04-14T09:03:54.062Z,73.39
2019-04-14T09:06:33.088Z,72.70
2019-04-14T09:09:44.411Z,72.65
2019-04-14T09:12:19.799Z,73.21
2019-04-14T09:14:57.142Z,73.53
2019-04-14T09:17:25.854Z,73.63
2019-04-14T09:19:59.987Z,73.10
2019-04-14T09:22:31.249Z,72.57
2019-04-14T09:25:03.740Z,72.71
2019-04-14T09:27:37.066Z,72.97
2019-04-14T09:30:12.673Z,73.27
2019-04-14T09:32:44.319Z,72.91
2019-04-14T09:35:17.650Z,73.20
2019-04-14T09:37:51.704Z,72.33
2019-04-14T09:40:23.194Z,73.77
2019-04-14T09:42:57.822Z,73.94
2019-04-14T09:45:31.206Z,74.10
2019-04-14T09:48:06.033Z,73.83
2019-04-14T09:50:41.380Z,73.79
2019-04-14T09:53:13.174Z,73.93
2019-04-14T09:55:46.779Z,74.09
2019-04-14T09:58:18.571Z,72.48
2019-04-14T10:00:50.617Z,72.73
2019-04-14T10:03:23.821Z,73.04
2019-04-14T10:05:57.825Z,73.40
2019-04-14T10:08:30.941Z,74.01
2019-04-14T10:11:04.915Z,72.86
2019-04-14T10:13:38.723Z,73.13
2019-04-14T10:16:11.764Z,73.36
2019-04-14T10:18:45.925Z,73.37
2019-04-14T10:21:18.630Z,74.07
2019-04-14T10:23:52.783Z,72.73
2019-04-14T10:26:25.929Z,73.91
2019-04-14T10:28:57.833Z,73.78
2019-04-14T10:31:30.893Z,73.75
2019-04-14T10:34:05.058Z,73.09
2019-04-14T10:36:39.666Z,73.09
2019-04-14T10:39:11.961Z,73.05
2019-04-14T10:41:45.014Z,73.97
2019-04-14T10:44:16.201Z,73.36
2019-04-14T10:46:50.158Z,74.88
2019-04-14T10:49:23.720Z,73.98
2019-04-14T10:51:59.370Z,73.49
2019-04-14T10:54:31.207Z,74.44
2019-04-14T10:57:03.978Z,74.84
2019-04-14T10:59:37.401Z,74.56
2019-04-14T11:02:10.976Z,75.42
2019-04-14T11:04:45.970Z,75.82
2019-04-14T11:07:31.714Z,75.68
2019-04-14T11:10:03.011Z,75.54
2019-04-14T11:12:37.259Z,75.96
2019-04-14T11:15:11.602Z,76.11
2019-04-14T11:17:45.489Z,76.26
2019-04-14T11:20:18.307Z,75.95
2019-04-14T11:23:02.848Z,76.57
2019-04-14T11:25:25.421Z,76.19
2019-04-14T11:28:01.047Z,77.02
2019-04-14T11:30:33.912Z,77.17
2019-04-14T11:33:39.813Z,76.41
2019-04-14T11:36:21.320Z,75.92
2019-04-14T11:39:15.092Z,76.14
2019-04-14T11:41:46.335Z,78.54
2019-04-14T11:44:18.856Z,78.97
2019-04-14T11:46:51.452Z,79.17
2019-04-14T11:49:25.116Z,79.26
2019-04-14T11:51:58.299Z,79.05
2019-04-14T11:54:31.015Z,79.09
2019-04-14T11:57:02.953Z,78.37
2019-04-14T11:59:53.295Z,78.17
2019-04-14T12:02:40.189Z,77.26
2019-04-14T12:05:23.165Z,77.89
2019-04-14T12:08:11.388Z,78.33
2019-04-14T12:10:44.425Z,78.46
2019-04-14T12:13:18.594Z,79.25
2019-04-14T12:15:52.358Z,78.89
2019-04-14T12:18:26.554Z,78.25
2019-04-14T12:20:59.310Z,77.70
2019-04-14T12:23:33.395Z,76.41
2019-04-14T12:26:07.450Z,76.90
2019-04-14T12:28:40.496Z,77.02
2019-04-14T12:31:15.256Z,76.23
2019-04-14T12:33:47.824Z,77.30
2019-04-14T12:36:19.542Z,77.88
2019-04-14T12:38:53.294Z,76.47
2019-04-14T12:41:31.668Z,76.01
2019-04-14T12:44:29.737Z,76.77
2019-04-14T12:47:24.968Z,77.79
2019-04-14T12:49:58.153Z,77.49
2019-04-14T12:52:30.415Z,77.75
2019-04-14T12:55:01.654Z,77.76
2019-04-14T12:57:48.727Z,76.73
2019-04-14T13:00:35.709Z,76.32
2019-04-14T13:03:09.101Z,76.91
2019-04-14T13:05:42.611Z,78.08
2019-04-14T13:08:18.107Z,78.41
2019-04-14T13:10:49.578Z,77.96
2019-04-14T13:13:23.370Z,77.24
2019-04-14T13:15:56.965Z,77.60
2019-04-14T13:18:30.639Z,77.19
2019-04-14T13:21:04.081Z,77.09
2019-04-14T13:23:37.706Z,75.80
2019-04-14T13:26:11.749Z,76.62
2019-04-14T13:28:44.701Z,77.14
2019-04-14T13:31:18.786Z,77.68
2019-04-14T13:33:54.713Z,77.54
2019-04-14T13:36:25.945Z,77.53
2019-04-14T13:38:58.722Z,76.50
2019-04-14T13:41:34.426Z,77.18
2019-04-14T13:44:05.995Z,76.90
2019-04-14T13:46:39.939Z,77.66
2019-04-14T13:49:13.553Z,77.35
2019-04-14T13:51:46.838Z,76.63
2019-04-14T13:54:18.071Z,77.40
2019-04-14T13:56:52.880Z,77.38
2019-04-14T13:59:24.829Z,77.92
2019-04-14T14:02:01.874Z,77.83
2019-04-14T14:04:40.590Z,78.03
2019-04-14T14:07:13.545Z,77.27
2019-04-14T14:09:47.109Z,78.53
2019-04-14T14:12:43.902Z,79.07
2019-04-14T14:15:34.974Z,78.84
2019-04-14T14:18:28.965Z,79.55
2019-04-14T14:21:22.210Z,79.00
2019-04-14T14:24:09.728Z,78.29
2019-04-14T14:26:41.395Z,78.49
2019-04-14T14:29:13.911Z,79.41
2019-04-14T14:31:48.052Z,79.13
2019-04-14T14:34:19.365Z,79.58
2019-04-14T14:36:52.379Z,79.01
2019-04-14T14:39:25.101Z,79.18
2019-04-14T14:41:56.614Z,79.15
2019-04-14T14:44:36.311Z,79.09
2019-04-14T14:47:29.467Z,78.58
2019-04-14T14:50:14.280Z,78.33
2019-04-14T14:52:47.176Z,78.41
2019-04-14T14:55:18.904Z,78.71
2019-04-14T14:57:51.882Z,78.80
2019-04-14T15:00:43.671Z,78.91
2019-04-14T15:03:16.709Z,79.23
2019-04-14T15:05:49.317Z,79.59
2019-04-14T15:08:23.632Z,79.29
2019-04-14T15:10:57.325Z,79.24
2019-04-14T15:13:31.676Z,79.72
2019-04-14T15:16:05.913Z,79.04
2019-04-14T15:18:39.697Z,79.46
2019-04-14T15:21:11.273Z,80.19
2019-04-14T15:23:46.624Z,80.29
2019-04-14T15:26:18.148Z,80.24
2019-04-14T15:28:52.161Z,80.09
2019-04-14T15:31:23.398Z,80.31
2019-04-14T15:33:56.344Z,79.22
2019-04-14T15:36:29.305Z,80.92
2019-04-14T15:39:01.216Z,80.79
2019-04-14T15:41:34.271Z,80.89
2019-04-14T15:44:06.019Z,81.24
2019-04-14T15:46:38.598Z,80.56
2019-04-14T15:49:11.442Z,80.24
2019-04-14T15:51:42.662Z,79.99
2019-04-14T15:54:16.302Z,79.91
2019-04-14T15:57:14.620Z,80.21
2019-04-14T16:00:05.095Z,80.56
2019-04-14T16:02:43.888Z,80.80
2019-04-14T16:05:34.412Z,80.43
2019-04-14T16:08:12.466Z,80.52
2019-04-14T16:11:11.902Z,80.86
2019-04-14T16:13:55.934Z,80.79
2019-04-14T16:16:59.275Z,80.80
2019-04-14T16:19:43.929Z,80.64
2019-04-14T16:22:16.427Z,80.66
2019-04-14T16:24:48.074Z,79.67
2019-04-14T16:27:53.777Z,79.66
2019-04-14T16:30:46.623Z,80.25
2019-04-14T16:33:30.483Z,80.23
2019-04-14T16:36:02.247Z,80.10
2019-04-14T16:38:35.676Z,80.32
2019-04-14T16:41:09.623Z,80.45
2019-04-14T16:43:42.600Z,81.33
2019-04-14T16:46:13.875Z,81.06
2019-04-14T16:48:48.429Z,80.91
2019-04-14T16:51:25.276Z,80.97
2019-04-14T16:54:03.313Z,80.33
2019-04-14T16:56:48.554Z,80.51
2019-04-14T16:59:19.801Z,80.65
2019-04-14T17:01:53.914Z,80.14
2019-04-14T17:04:25.899Z,80.49
2019-04-14T17:06:58.047Z,81.30
2019-04-14T17:09:31.127Z,80.82
2019-04-14T17:12:03.076Z,80.47
2019-04-14T17:14:49.468Z,80.99
2019-04-14T17:18:00.594Z,81.02
2019-04-14T17:20:51.187Z,80.59
2019-04-14T17:23:41.996Z,80.10
2019-04-14T17:26:21.937Z,80.40
2019-04-14T17:29:01.354Z,80.04
2019-04-14T17:31:51.348Z,80.34
2019-04-14T17:34:31.786Z,80.26
2019-04-14T17:37:24.725Z,81.01
2019-04-14T17:40:08.719Z,81.53
2019-04-14T17:42:54.251Z,81.63
2019-04-14T17:45:38.470Z,81.22
2019-04-14T17:48:33.020Z,80.79
2019-04-14T17:51:09.902Z,81.39
2019-04-14T17:53:47.230Z,80.86
2019-04-14T17:56:37.137Z,81.24
2019-04-14T17:59:15.935Z,81.21
2019-04-14T18:01:59.280Z,81.00
2019-04-14T18:04:53.544Z,79.92
2019-04-14T18:07:41.409Z,80.28
2019-04-14T18:10:25.166Z,80.69
2019-04-14T18:13:32.306Z,80.05
2019-04-14T18:16:28.166Z,80.82
2019-04-14T18:19:20.491Z,81.63
2019-04-14T18:21:55.669Z,81.55
2019-04-14T18:24:41.714Z,81.62
2019-04-14T18:27:04.631Z,80.70
2019-04-14T18:29:59.901Z,81.03
2019-04-14T18:32:40.931Z,81.02
2019-04-14T18:35:22.757Z,81.01
2019-04-14T18:38:06.405Z,81.00
2019-04-14T18:40:57.135Z,81.36
2019-04-14T18:43:48.166Z,81.43
2019-04-14T18:46:27.987Z,81.54
2019-04-14T18:49:20.016Z,81.38
2019-04-14T18:52:17.653Z,81.83
2019-04-14T18:55:17.480Z,81.32
2019-04-14T18:58:07.125Z,81.36
2019-04-14T19:01:00.161Z,81.17
2019-04-14T19:03:33.318Z,81.09
2019-04-14T19:06:06.362Z,81.31
2019-04-14T19:08:37.968Z,81.45
2019-04-14T19:11:32.297Z,81.00
2019-04-14T19:14:05.987Z,80.77
2019-04-14T19:16:42.470Z,81.00
2019-04-14T19:19:16.495Z,80.91
2019-04-14T19:21:51.104Z,80.67
2019-04-14T19:24:25.810Z,81.04
2019-04-14T19:26:59.842Z,81.29
2019-04-14T19:29:31.744Z,81.94
2019-04-14T19:32:04.133Z,81.26
2019-04-14T19:34:39.054Z,81.78
2019-04-14T19:37:11.529Z,82.06
2019-04-14T19:39:44.385Z,81.96
2019-04-14T19:42:18.281Z,81.81
2019-04-14T19:44:51.279Z,81.83
2019-04-14T19:47:22.576Z,81.83
2019-04-14T19:49:56.454Z,80.97
2019-04-14T19:52:29.425Z,79.99
2019-04-14T19:55:05.535Z,81.07
2019-04-14T19:57:40.314Z,81.47
2019-04-14T20:00:13.585Z,81.54
2019-04-14T20:02:47.241Z,81.22
2019-04-14T20:05:19.753Z,80.94
2019-04-14T20:07:51.566Z,80.31
2019-04-14T20:10:25.776Z,81.28
2019-04-14T20:12:57.827Z,81.11
2019-04-14T20:15:34.767Z,80.29
2019-04-14T20:18:14.348Z,80.82
2019-04-14T20:21:09.698Z,80.91
2019-04-14T20:23:47.980Z,80.55
2019-04-14T20:26:47.511Z,80.62
2019-04-14T20:29:23.027Z,80.37
2019-04-14T20:32:03.712Z,81.17
2019-04-14T20:34:35.897Z,80.78
2019-04-14T20:37:09.654Z,80.58
2019-04-14T20:39:45.354Z,80.87
2019-04-14T20:42:17.956Z,81.15
2019-04-14T20:44:50.889Z,82.03
2019-04-14T20:47:25.415Z,81.41
2019-04-14T20:49:57.610Z,81.73
2019-04-14T20:52:32.501Z,81.51
2019-04-14T20:55:07.995Z,81.45
2019-04-14T20:57:42.590Z,81.82
2019-04-14T21:00:14.861Z,80.97
2019-04-14T21:03:06.844Z,81.59
2019-04-14T21:06:02.183Z,81.95
2019-04-14T21:08:54.069Z,82.22
2019-04-14T21:11:31.315Z,81.86
2019-04-14T21:14:19.826Z,82.27
2019-04-14T21:17:06.873Z,82.47
2019-04-14T21:20:05.028Z,83.19
2019-04-14T21:22:55.741Z,82.98
2019-04-14T21:25:45.597Z,83.17
2019-04-14T21:28:35.777Z,83.02
2019-04-14T21:31:17.804Z,82.88
2019-04-14T21:34:10.081Z,83.38
2019-04-14T21:37:17.471Z,83.02
2019-04-14T21:40:19.434Z,83.00
2019-04-14T21:42:51.147Z,82.13
2019-04-14T21:45:26.245Z,82.33
2019-04-14T21:48:01.948Z,82.42
2019-04-14T21:50:33.236Z,82.56
2019-04-14T21:53:05.803Z,82.47
2019-04-14T21:55:39.050Z,83.29
2019-04-14T21:58:41.508Z,83.36
2019-04-14T22:01:52.880Z,82.76
2019-04-14T22:04:53.934Z,82.84
2019-04-14T22:07:32.877Z,82.50
2019-04-14T22:10:43.971Z,82.69
2019-04-14T22:13:17.351Z,82.53
2019-04-14T22:15:51.787Z,82.72
2019-04-14T22:18:23.149Z,83.09
2019-04-14T22:20:55.228Z,83.51
2019-04-14T22:23:30.489Z,84.84
2019-04-14T22:26:05.108Z,84.60
2019-04-14T22:28:40.995Z,84.39
2019-04-14T22:31:14.935Z,84.17
2019-04-14T22:33:47.139Z,83.80
2019-04-14T22:36:19.308Z,84.32
2019-04-14T22:38:52.106Z,84.27
2019-04-14T22:41:28.053Z,86.29
2019-04-14T22:44:03.015Z,86.03
2019-04-14T22:46:35.723Z,84.94
2019-04-14T22:49:08.254Z,84.75
2019-04-14T22:51:42.333Z,84.81
2019-04-14T22:54:15.450Z,84.64
2019-04-14T22:56:48.474Z,84.86
2019-04-14T22:59:20.010Z,85.27
2019-04-14T23:02:00.098Z,85.45
2019-04-14T23:04:52.684Z,85.94
2019-04-14T23:07:48.403Z,86.32
2019-04-14T23:10:29.727Z,86.24
2019-04-14T23:13:15.849Z,85.93
2019-04-14T23:16:04.911Z,85.73
2019-04-14T23:18:46.200Z,85.92
2019-04-14T23:21:34.950Z,85.62
2019-04-14T23:24:20.086Z,85.58
2019-04-14T23:26:53.930Z,85.69
2019-04-14T23:29:27.883Z,85.93
2019-04-14T23:32:00.662Z,86.02
2019-04-14T23:34:32.598Z,85.73
2019-04-14T23:37:05.059Z,85.31
2019-04-14T23:39:38.898Z,85.44
2019-04-14T23:42:13.774Z,84.73
2019-04-14T23:44:47.618Z,84.66
2019-04-14T23:47:19.475Z,84.96
2019-04-14T23:49:52.961Z,84.64
2019-04-14T23:52:25.659Z,85.18
2019-04-14T23:54:59.042Z,85.78
2019-04-14T23:57:32.782Z,87.11
